首页
METAR-TAF:

METAR-TAF

机场 :

Wittmund, 德国

纬度: 53-33N, 经度: 007-40E, 海拔: 8米

当前天气观测

该预报发布于49分钟前的15:20 UTC
风速7节,风向
温度 18°C
湿度 42%
气压 1023 hPa
能见度10公里或以上
少量云层高于11000英尺
多云层高于21000英尺

METAR: ETNT 081520Z 36007KT 9999 FEW110 BKN210 18/05 Q1023 BLU+BLU+ TEMPO BLU

时间: 18:09 (16:09 UTC)

预报

该预报发布于2小时和47分钟前的13:22 UTC
预报有效从08日的 14点(UTC)到 08日的 23点(UTC)
风速8节,风向
能见度10公里或以上
少量云层高于7000英尺
多云层高于27000英尺

TAF: ETNT 081322Z 0814/0823 35008KT 9999 NSW FEW070 BKN270 BY ETGL

超过4000个机场的气象观测和天气预报(METAR&TAF报告)。

可查询的气象台以黄色和红色小点在地图上表示。

将鼠标移到小点上方,可查看气象台名称。

然后点击查看天气观测和预报。

如需切换地图:点击带黑十字的绿色按钮放大地图;点击带横线的绿色按钮缩小地图;或者点击绿色箭头查看邻近地区的地图。


METAR-TAF: